Nunnelly, TN (37137)

3:28 PM CST on February 14, 2016 (GMT -0600)
Littlelot Rd. Hwy 230 at Hwy 100 | | Change Station
CLOSE
Current Station
Personal Weather Station
Location: Lyles, TN
Elevation: 912 ft
Nearby Weather Stations

Elev 912 ft 35.85 °N, 87.34 °W | Updated 12 seconds ago

Overcast
Overcast
34.7 °F
Feels Like 35 °F
N
0.2
Wind Variable Wind from SE
Gusts 2.5 mph

Today
High -- | Low -- °F
--% Chance of Precip.
Yesterday
High -- | Low -- °F
Precip. -- in
Pressure 30.01 in
Visibility 10.0 miles
Clouds Few 5000 ft
Scattered Clouds 6500 ft
Mostly Cloudy 7500 ft
Windchill 35 °F
Dew Point 11 °F
Humidity 37%
Rainfall 0.00 in
Snow Depth Not available.
6:38 AM 5:30 PM
Waxing Crescent, 45% visible
METAR KMRC 142115Z AUTO 16010KT 10SM FEW050 SCT065 BKN075 04/M09 A3001 RMK
Pressure 30.01 in
Visibility 10.0 miles
Clouds Few 5000 ft
Scattered Clouds 6500 ft
Mostly Cloudy 7500 ft
Windchill 35 °F
Dew Point 11 °F
Humidity 37%
Rainfall 0.00 in
Snow Depth Not available.
6:38 AM 5:30 PM
Waxing Crescent, 45% visible
METAR KMRC 142115Z AUTO 16010KT 10SM FEW050 SCT065 BKN075 04/M09 A3001 RMK

10-Day Weather Forecast

Almanac

Astronomy

Feb. 14, 2016 Rise Set
Actual Time
Civil Twilight
Nautical Twilight
Astronomical Twilight
Moon
Length of Visible Light
Length of Day
Tomorrow will be .
, % of the Moon is Illuminated

Today's Extremes

State Highs State Lows

Community

WunderPhotos

Upload Photos

1,892,887 photos uploaded!

WunderBlog® & News

Nearby

Air Quality

  Air Quality AQ Index Pollutant
Not available.

Snow Depth

Station Depth Elevation

Earthquake Activity

City Distance Mag. Time & Date
Minimum magnitude displayed is 2.5.

Coastal Water Temperatures

Place Temperature

Stations

Nearby Weather Stations

Station Location Temp. Windchill Dew Point Humidity Wind Precip. Elev Updated Type
                   

Watches & Warnings

There are currently no watches in effect.